Ikshkile Airport


Codes: EVPA/
Name: Ikshkile Airport
City: Ikshkile
Country: Latvia
Elevation: 64 ft.

Photos at Ikshkile Airport


   Photos courtesy of SpottingLog. You can add your own sightings and photos by signing up for a free trial today.



No photos found.

Weather at Ikshkile Airport


Time (UTC)DescriptionTempratureWindCloud coverageVisibilityPressureHumidity
23-May-2024 21:00Overcast Clouds20°C9 mph, SE100%10000m1024hPa74%
24-May-2024 00:00Overcast Clouds19°C9 mph, SE90%10000m1024hPa78%
24-May-2024 03:00Broken Clouds17°C9 mph, SE59%10000m1025hPa79%
24-May-2024 06:00Scattered Clouds20°C9 mph, SE27%10000m1025hPa62%
24-May-2024 09:00Few Clouds24°C11 mph, SE16%10000m1025hPa50%
24-May-2024 12:00Light Rain26°C13 mph, S21%10000m1025hPa44%
24-May-2024 15:00Scattered Clouds25°C11 mph, S36%10000m1024hPa49%
24-May-2024 18:00Light Rain18°C7 mph, SE21%10000m1025hPa84%
24-May-2024 21:00Clear Sky16°C7 mph, SE8%10000m1025hPa93%
25-May-2024 00:00Clear Sky15°C7 mph, SE7%10000m1025hPa94%
25-May-2024 03:00Clear Sky14°C7 mph, SE4%10000m1026hPa94%
25-May-2024 06:00Clear Sky20°C7 mph, SE2%10000m1026hPa64%
25-May-2024 09:00Clear Sky24°C9 mph, S0%10000m1025hPa47%
25-May-2024 12:00Clear Sky26°C9 mph, S2%10000m1025hPa43%
25-May-2024 15:00Scattered Clouds26°C7 mph, S30%10000m1024hPa39%
25-May-2024 18:00Scattered Clouds20°C2 mph, S30%10000m1025hPa68%
25-May-2024 21:00Scattered Clouds17°C4 mph, SE38%10000m1026hPa77%
26-May-2024 00:00Few Clouds14°C4 mph, SE20%10000m1026hPa93%
26-May-2024 03:00Clear Sky14°C4 mph, SE4%10000m1027hPa90%
26-May-2024 06:00Clear Sky21°C4 mph, SE1%10000m1028hPa58%
26-May-2024 09:00Clear Sky25°C7 mph, SE1%10000m1027hPa37%
26-May-2024 12:00Few Clouds26°C9 mph, S12%10000m1027hPa32%
26-May-2024 15:00Few Clouds26°C7 mph, S12%10000m1026hPa35%
26-May-2024 18:00Clear Sky19°C2 mph, SW6%10000m1027hPa65%
26-May-2024 21:00Clear Sky15°C4 mph, SE1%10000m1027hPa79%
27-May-2024 00:00Clear Sky13°C4 mph, SE4%10000m1028hPa81%
27-May-2024 03:00Clear Sky13°C4 mph, SE10%10000m1028hPa82%
27-May-2024 06:00Clear Sky21°C4 mph, SE8%10000m1028hPa53%
27-May-2024 09:00Broken Clouds25°C9 mph, S59%10000m1027hPa35%
27-May-2024 12:00Broken Clouds26°C9 mph, S55%10000m1026hPa32%
27-May-2024 15:00Broken Clouds25°C9 mph, S73%10000m1025hPa37%
27-May-2024 18:00Scattered Clouds19°C2 mph, SW43%10000m1025hPa64%
27-May-2024 21:00Scattered Clouds15°C4 mph, SE29%10000m1025hPa73%
28-May-2024 00:00Scattered Clouds14°C4 mph, SE49%10000m1025hPa79%
28-May-2024 03:00Broken Clouds14°C4 mph, SE68%10000m1024hPa81%
28-May-2024 06:00Broken Clouds21°C4 mph, SE69%10000m1024hPa55%
28-May-2024 09:00Scattered Clouds25°C7 mph, S26%10000m1023hPa37%
28-May-2024 12:00Scattered Clouds27°C9 mph, S48%10000m1021hPa32%
28-May-2024 15:00Broken Clouds26°C4 mph, S57%10000m1020hPa37%
28-May-2024 18:00Light Rain17°C2 mph, E69%10000m1020hPa86%